Terminal Aerodrome Forecast
Issued by NWS

Home | Current Version | Previous Version | Text Only | Print | Product List | Glossary On
Versions: 1 2 3 4 5 6 7 8 9 10 11 12 13 14
795
FTUS41 KPHI 300534
TAFMIV
TAF
KMIV 300534Z 3006/3106 VRB03KT P6SM VCSH SCT004 OVC010
      TEMPO 3006/3010 4SM -SHRA OVC004
     FM301000 25005KT 3SM SHRA BR OVC004
     FM301600 21005KT 2SM -SHRA BR OVC007
     FM302000 22005KT 6SM BR VCSH OVC012
     FM310100 00000KT 3SM BR OVC007=

USA.gov is the U.S. government's official web portal to all federal, state and local government web resources and services.